< < Back
Terminal Aerodrome Forecast


Current Version              Previous Versions:   1  2  3  4  5  6  7  8  9  

Terminal Aerodrome Forecast

185
FTUS42 KTAE 010500
TAFTLH
TAF
KTLH 010523Z 0106/0206 VRB03KT P6SM SCT250
     FM012200 20007KT P6SM SCT060 SCT250
     FM020200 VRB03KT P6SM SCT250=

Latest METAR

592
SAUS80 KWBC 010500 RRD
MTRTLH
METAR KTLH 010453Z AUTO 00000KT 10SM CLR 23/18 A2998 RMK AO2 SLPNO
T02280183


USA.gov is the U.S. government's official web portal to all federal, state and local government web resources and services.